createdAt,value
2022-11-13T00:00:11.066Z,84.27
2022-11-13T00:01:18.077Z,84.29
2022-11-13T00:02:11.151Z,84.47
2022-11-13T00:03:11.064Z,84.74
2022-11-13T00:04:11.064Z,85.13
2022-11-13T00:05:11.067Z,85.56
2022-11-13T00:06:11.061Z,85.39
2022-11-13T00:07:11.083Z,85.16
2022-11-13T00:08:11.071Z,85.18
2022-11-13T00:09:12.066Z,85.04
2022-11-13T00:10:11.065Z,84.95
2022-11-13T00:11:18.069Z,84.98
2022-11-13T00:12:11.065Z,84.91
2022-11-13T00:13:11.064Z,84.82
2022-11-13T00:14:11.068Z,84.65
2022-11-13T00:15:11.067Z,84.67
2022-11-13T00:16:12.064Z,84.59
2022-11-13T00:17:11.065Z,84.65
2022-11-13T00:18:11.082Z,84.68
2022-11-13T00:19:11.067Z,84.67
2022-11-13T00:20:11.069Z,84.48
2022-11-13T00:21:13.070Z,84.52
2022-11-13T00:22:11.061Z,84.36
2022-11-13T00:23:11.058Z,84.55
2022-11-13T00:24:11.060Z,84.45
2022-11-13T00:25:11.063Z,84.54
2022-11-13T00:26:18.067Z,84.23
2022-11-13T00:27:11.060Z,84.46
2022-11-13T00:28:11.069Z,84.43
2022-11-13T00:29:11.060Z,84.58
2022-11-13T00:30:16.368Z,84.71
2022-11-13T00:31:13.138Z,84.52
2022-11-13T00:32:11.063Z,84.62
2022-11-13T00:33:11.061Z,84.84
2022-11-13T00:34:46.383Z,84.66
2022-11-13T00:35:13.132Z,84.88
2022-11-13T00:36:13.061Z,84.60
2022-11-13T00:37:11.064Z,84.83
2022-11-13T00:38:11.077Z,85.14
2022-11-13T00:39:11.064Z,85.09
2022-11-13T00:40:11.074Z,85.27
2022-11-13T00:41:11.064Z,85.22
2022-11-13T00:42:11.065Z,85.29
2022-11-13T00:43:11.061Z,85.12
2022-11-13T00:44:11.063Z,85.26
2022-11-13T00:45:12.065Z,85.45
2022-11-13T00:46:11.065Z,85.35
2022-11-13T00:47:11.063Z,85.38
2022-11-13T00:48:11.063Z,85.11
2022-11-13T00:49:11.064Z,85.17
2022-11-13T00:50:11.062Z,85.17
2022-11-13T00:51:11.063Z,85.42
2022-11-13T00:52:11.062Z,85.26
2022-11-13T00:53:16.841Z,84.97
2022-11-13T00:54:13.083Z,85.12
2022-11-13T00:55:11.064Z,85.40
2022-11-13T00:56:11.059Z,85.27
2022-11-13T00:57:11.067Z,85.29
2022-11-13T00:58:11.068Z,85.34
2022-11-13T00:59:11.062Z,84.99
2022-11-13T01:00:11.066Z,84.98
2022-11-13T01:01:17.146Z,85.37
2022-11-13T01:02:11.063Z,85.52
2022-11-13T01:03:11.065Z,85.53
2022-11-13T01:04:11.071Z,85.30
2022-11-13T01:05:11.062Z,85.26
2022-11-13T01:06:16.068Z,85.09
2022-11-13T01:07:11.087Z,85.03
2022-11-13T01:08:11.065Z,85.00
2022-11-13T01:09:11.065Z,84.92
2022-11-13T01:10:11.064Z,84.67
2022-11-13T01:11:11.066Z,84.73
2022-11-13T01:12:11.060Z,84.66
2022-11-13T01:13:11.073Z,84.48
2022-11-13T01:14:11.067Z,84.31
2022-11-13T01:15:11.070Z,84.21
2022-11-13T01:16:11.076Z,84.23
2022-11-13T01:17:11.066Z,84.23
2022-11-13T01:18:11.066Z,84.32
2022-11-13T01:19:11.067Z,84.14
2022-11-13T01:20:11.074Z,84.25
2022-11-13T01:21:17.065Z,83.96
2022-11-13T01:22:11.058Z,84.04
2022-11-13T01:23:11.062Z,84.04
2022-11-13T01:24:11.061Z,83.96
2022-11-13T01:25:11.061Z,83.81
2022-11-13T01:26:18.061Z,84.05
2022-11-13T01:27:11.073Z,84.08
2022-11-13T01:28:11.061Z,84.04
2022-11-13T01:29:11.057Z,83.98
2022-11-13T01:30:11.061Z,83.81
2022-11-13T01:31:11.062Z,83.88
2022-11-13T01:32:11.068Z,84.02
2022-11-13T01:33:11.064Z,83.84
2022-11-13T01:34:11.063Z,83.85
2022-11-13T01:35:11.059Z,84.02
2022-11-13T01:36:15.070Z,83.83
2022-11-13T01:37:11.064Z,83.94
2022-11-13T01:38:11.058Z,84.25
2022-11-13T01:39:11.062Z,84.13
2022-11-13T01:40:12.069Z,84.06
2022-11-13T01:41:17.854Z,83.99
2022-11-13T01:42:13.484Z,83.88
2022-11-13T01:43:19.066Z,84.01
2022-11-13T01:44:14.074Z,83.96
2022-11-13T01:45:19.061Z,84.09
2022-11-13T01:46:17.058Z,83.92
2022-11-13T01:47:11.066Z,84.03
2022-11-13T01:48:11.072Z,84.05
2022-11-13T01:49:19.062Z,84.08
2022-11-13T01:50:14.066Z,84.05
2022-11-13T01:51:18.070Z,84.03
2022-11-13T01:52:19.063Z,84.35
2022-11-13T01:53:11.068Z,84.26
2022-11-13T01:54:15.063Z,84.28
2022-11-13T01:55:16.081Z,84.29
2022-11-13T01:56:11.064Z,84.24
2022-11-13T01:57:11.062Z,84.33
2022-11-13T01:58:11.069Z,84.56
2022-11-13T01:59:21.073Z,84.48
2022-11-13T02:00:11.067Z,84.59
2022-11-13T02:01:11.063Z,84.83
2022-11-13T02:02:11.130Z,84.94
2022-11-13T02:03:11.075Z,84.88
2022-11-13T02:04:11.073Z,84.89
2022-11-13T02:05:12.067Z,84.78
2022-11-13T02:06:11.071Z,84.83
2022-11-13T02:07:12.099Z,84.82
2022-11-13T02:08:11.067Z,84.74
2022-11-13T02:09:11.068Z,84.77
2022-11-13T02:10:11.064Z,84.72
2022-11-13T02:11:11.066Z,85.29
2022-11-13T02:12:13.067Z,85.25
2022-11-13T02:13:11.067Z,84.99
2022-11-13T02:14:11.064Z,85.00
2022-11-13T02:15:11.064Z,85.31
2022-11-13T02:16:11.066Z,85.62
2022-11-13T02:17:12.063Z,85.95
2022-11-13T02:18:11.073Z,86.59
2022-11-13T02:19:17.077Z,86.39
2022-11-13T02:20:11.066Z,86.42
2022-11-13T02:21:21.056Z,87.66
2022-11-13T02:22:20.060Z,88.07
2022-11-13T02:23:17.067Z,88.52
2022-11-13T02:24:19.062Z,88.88
2022-11-13T02:25:11.062Z,88.76
2022-11-13T02:26:11.057Z,89.93
2022-11-13T02:27:21.067Z,89.95
2022-11-13T02:28:11.070Z,89.58
2022-11-13T02:29:11.062Z,90.07
2022-11-13T02:30:22.026Z,90.28
2022-11-13T02:31:13.131Z,90.68
2022-11-13T02:32:11.071Z,91.19
2022-11-13T02:33:19.060Z,91.19
2022-11-13T02:34:11.060Z,91.08
2022-11-13T02:35:11.063Z,91.06
2022-11-13T02:36:11.065Z,90.90
2022-11-13T02:37:11.062Z,91.29
2022-11-13T02:38:11.062Z,91.32
2022-11-13T02:39:11.069Z,91.42
2022-11-13T02:40:11.061Z,91.42
2022-11-13T02:41:11.065Z,91.39
2022-11-13T02:42:11.080Z,91.97
2022-11-13T02:43:11.062Z,92.17
2022-11-13T02:44:11.058Z,92.44
2022-11-13T02:45:11.062Z,92.25
2022-11-13T02:46:11.067Z,92.08
2022-11-13T02:47:11.061Z,92.05
2022-11-13T02:48:11.062Z,91.90
2022-11-13T02:49:11.067Z,91.79
2022-11-13T02:50:11.061Z,91.84
2022-11-13T02:51:11.063Z,91.92
2022-11-13T02:52:11.121Z,91.90
2022-11-13T02:53:11.068Z,91.76
2022-11-13T02:54:16.536Z,91.78
2022-11-13T02:55:13.111Z,92.01
2022-11-13T02:56:11.066Z,91.98
2022-11-13T02:57:11.062Z,91.96
2022-11-13T02:58:11.065Z,92.30
2022-11-13T02:59:11.065Z,92.43
2022-11-13T03:00:14.002Z,92.73
2022-11-13T03:01:11.119Z,92.31
2022-11-13T03:02:11.077Z,92.33
2022-11-13T03:03:11.067Z,92.24
2022-11-13T03:04:11.059Z,92.17
2022-11-13T03:05:12.991Z,92.20
2022-11-13T03:06:11.067Z,92.32
2022-11-13T03:07:11.095Z,92.51
2022-11-13T03:08:11.071Z,92.70
2022-11-13T03:09:11.066Z,92.67
2022-11-13T03:10:11.071Z,92.61
2022-11-13T03:11:11.075Z,92.42
2022-11-13T03:12:11.075Z,92.51
2022-11-13T03:13:11.064Z,92.59
2022-11-13T03:14:11.069Z,92.56
2022-11-13T03:15:11.067Z,92.72
2022-11-13T03:16:17.069Z,92.60
2022-11-13T03:17:11.064Z,92.62
2022-11-13T03:18:11.068Z,92.95
2022-11-13T03:19:11.072Z,92.95
2022-11-13T03:20:11.070Z,93.09
2022-11-13T03:21:12.065Z,93.17
2022-11-13T03:22:11.064Z,93.26
2022-11-13T03:23:11.061Z,92.99
2022-11-13T03:24:11.060Z,92.90
2022-11-13T03:25:11.261Z,92.92
2022-11-13T03:26:11.060Z,92.84
2022-11-13T03:27:11.059Z,92.95
2022-11-13T03:28:11.061Z,93.11
2022-11-13T03:29:11.061Z,92.92
2022-11-13T03:30:11.060Z,92.98
2022-11-13T03:31:11.063Z,93.23
2022-11-13T03:32:11.071Z,93.66
2022-11-13T03:33:11.060Z,93.95
2022-11-13T03:34:11.058Z,93.69
2022-11-13T03:35:11.064Z,93.86
2022-11-13T03:36:11.063Z,93.86
2022-11-13T03:37:11.058Z,93.71
2022-11-13T03:38:11.062Z,93.61
2022-11-13T03:39:11.062Z,93.57
2022-11-13T03:40:11.061Z,93.46
2022-11-13T03:41:11.064Z,93.20
2022-11-13T03:42:11.069Z,92.96
2022-11-13T03:43:11.064Z,93.33
2022-11-13T03:44:11.061Z,93.53
2022-11-13T03:45:11.065Z,93.66
2022-11-13T03:46:11.067Z,93.97
2022-11-13T03:47:11.058Z,93.85
2022-11-13T03:48:11.070Z,93.88
2022-11-13T03:49:11.063Z,94.04
2022-11-13T03:50:11.061Z,93.86
2022-11-13T03:51:11.064Z,94.15
2022-11-13T03:52:11.063Z,93.99
2022-11-13T03:53:11.062Z,94.11
2022-11-13T03:54:11.068Z,94.01
2022-11-13T03:55:11.075Z,94.40
2022-11-13T03:56:11.061Z,94.54
2022-11-13T03:57:11.065Z,94.48
2022-11-13T03:58:11.072Z,94.39
2022-11-13T03:59:11.064Z,94.15
2022-11-13T04:00:11.060Z,94.07
2022-11-13T04:01:11.066Z,94.12
2022-11-13T04:02:11.066Z,94.43
2022-11-13T04:03:11.064Z,94.31
2022-11-13T04:04:11.066Z,94.13
2022-11-13T04:05:11.063Z,94.04
2022-11-13T04:06:11.064Z,94.13
2022-11-13T04:07:11.106Z,94.02
2022-11-13T04:08:11.066Z,94.26
2022-11-13T04:09:11.069Z,94.66
2022-11-13T04:10:11.064Z,94.78
2022-11-13T04:11:11.068Z,95.00
2022-11-13T04:12:11.065Z,94.96
2022-11-13T04:13:11.067Z,94.99
2022-11-13T04:14:11.073Z,95.13
2022-11-13T04:15:11.066Z,94.89
2022-11-13T04:16:11.064Z,94.83
2022-11-13T04:17:11.064Z,94.44
2022-11-13T04:18:11.067Z,94.42
2022-11-13T04:19:11.070Z,94.53
2022-11-13T04:20:11.065Z,94.72
2022-11-13T04:21:11.060Z,94.59
2022-11-13T04:22:11.057Z,94.44
2022-11-13T04:23:15.058Z,94.13
2022-11-13T04:24:11.065Z,94.26
2022-11-13T04:25:11.064Z,94.30
2022-11-13T04:26:11.089Z,94.09
2022-11-13T04:27:11.068Z,93.96
2022-11-13T04:28:11.060Z,93.75
2022-11-13T04:29:11.056Z,93.65
2022-11-13T04:30:11.062Z,93.49
2022-11-13T04:31:11.059Z,93.37
2022-11-13T04:32:11.060Z,93.46
2022-11-13T04:33:11.060Z,93.47
2022-11-13T04:34:11.062Z,93.36
2022-11-13T04:35:11.059Z,93.44
2022-11-13T04:36:11.061Z,93.80
2022-11-13T04:37:11.069Z,93.87
2022-11-13T04:38:11.063Z,94.19
2022-11-13T04:39:11.066Z,93.91
2022-11-13T04:40:11.063Z,93.64
2022-11-13T04:41:15.063Z,93.72
2022-11-13T04:42:15.060Z,93.66
2022-11-13T04:43:11.065Z,93.71
2022-11-13T04:44:11.069Z,93.85
2022-11-13T04:45:11.062Z,93.83
2022-11-13T04:46:11.057Z,93.77
2022-11-13T04:47:11.064Z,93.63
2022-11-13T04:48:11.066Z,93.63
2022-11-13T04:49:11.060Z,93.52
2022-11-13T04:50:11.062Z,93.75
2022-11-13T04:51:11.074Z,93.83
2022-11-13T04:52:11.061Z,94.12
2022-11-13T04:53:11.064Z,94.27
2022-11-13T04:54:11.069Z,94.64
2022-11-13T04:55:11.063Z,94.20
2022-11-13T04:56:11.067Z,94.48
2022-11-13T04:57:11.070Z,95.26
2022-11-13T04:58:11.067Z,95.05
2022-11-13T04:59:11.062Z,94.62
2022-11-13T05:00:11.063Z,94.52
2022-11-13T05:01:11.069Z,94.21
2022-11-13T05:02:11.061Z,94.00
2022-11-13T05:03:11.063Z,93.77
2022-11-13T05:04:14.064Z,93.97
2022-11-13T05:05:11.061Z,93.92
2022-11-13T05:06:11.065Z,93.85
2022-11-13T05:07:11.115Z,93.61
2022-11-13T05:08:11.065Z,93.67
2022-11-13T05:09:11.064Z,93.40
2022-11-13T05:10:11.066Z,93.18
2022-11-13T05:11:11.064Z,92.98
2022-11-13T05:12:11.063Z,92.69
2022-11-13T05:13:11.064Z,92.77
2022-11-13T05:14:12.067Z,92.77
2022-11-13T05:15:11.062Z,92.97
2022-11-13T05:16:11.063Z,92.82
2022-11-13T05:17:12.065Z,92.64
2022-11-13T05:18:11.063Z,92.64
2022-11-13T05:19:11.063Z,92.67
2022-11-13T05:20:11.067Z,92.65
2022-11-13T05:21:11.058Z,92.99
2022-11-13T05:22:11.062Z,92.90
2022-11-13T05:23:11.065Z,92.69
2022-11-13T05:24:11.059Z,92.97
2022-11-13T05:25:11.062Z,92.99
2022-11-13T05:26:11.062Z,92.74
2022-11-13T05:27:16.860Z,92.85
2022-11-13T05:28:13.120Z,92.86
2022-11-13T05:29:11.064Z,92.69
2022-11-13T05:30:11.088Z,92.48
2022-11-13T05:31:11.058Z,92.72
2022-11-13T05:32:11.063Z,92.72
2022-11-13T05:33:11.066Z,92.88
2022-11-13T05:34:11.058Z,92.76
2022-11-13T05:35:11.064Z,92.64
2022-11-13T05:36:13.063Z,92.61
2022-11-13T05:37:11.062Z,92.79
2022-11-13T05:38:11.059Z,92.66
2022-11-13T05:39:11.060Z,92.41
2022-11-13T05:40:11.061Z,92.35
2022-11-13T05:41:15.058Z,92.20
2022-11-13T05:42:11.057Z,92.12
2022-11-13T05:43:11.063Z,91.94
2022-11-13T05:44:11.062Z,92.02
2022-11-13T05:45:11.060Z,91.88
2022-11-13T05:46:19.063Z,92.12
2022-11-13T05:47:11.068Z,92.00
2022-11-13T05:48:11.065Z,91.83
2022-11-13T05:49:11.063Z,92.13
2022-11-13T05:50:11.068Z,92.12
2022-11-13T05:51:14.063Z,92.03
2022-11-13T05:52:11.058Z,92.01
2022-11-13T05:53:11.063Z,91.99
2022-11-13T05:54:11.063Z,92.44
2022-11-13T05:55:11.062Z,92.56
2022-11-13T05:56:13.061Z,92.94
2022-11-13T05:57:11.070Z,92.86
2022-11-13T05:58:11.061Z,92.61
2022-11-13T05:59:11.065Z,92.85
2022-11-13T06:00:11.076Z,92.54
2022-11-13T06:01:18.061Z,92.50
2022-11-13T06:02:11.100Z,92.41
2022-11-13T06:03:11.069Z,92.41
2022-11-13T06:04:11.068Z,92.83
2022-11-13T06:05:11.059Z,93.12
2022-11-13T06:06:11.066Z,92.97
2022-11-13T06:07:11.094Z,92.50
2022-11-13T06:08:11.063Z,92.26
2022-11-13T06:09:11.067Z,92.32
2022-11-13T06:10:11.073Z,92.60
2022-11-13T06:11:11.062Z,92.67
2022-11-13T06:12:11.064Z,92.95
2022-11-13T06:13:11.065Z,92.69
2022-11-13T06:14:11.062Z,92.86
2022-11-13T06:15:11.066Z,93.07
2022-11-13T06:16:14.075Z,93.15
2022-11-13T06:17:11.065Z,92.95
2022-11-13T06:18:11.061Z,93.28
2022-11-13T06:19:11.076Z,93.56
2022-11-13T06:20:11.067Z,93.82
2022-11-13T06:21:11.057Z,93.86
2022-11-13T06:22:11.057Z,93.67
2022-11-13T06:23:11.059Z,93.70
2022-11-13T06:24:11.061Z,94.10
2022-11-13T06:25:11.059Z,94.20
2022-11-13T06:26:14.067Z,93.96
2022-11-13T06:27:11.062Z,94.26
2022-11-13T06:28:11.057Z,93.98
2022-11-13T06:29:11.066Z,94.04
2022-11-13T06:30:11.063Z,93.74
2022-11-13T06:31:11.058Z,93.89
2022-11-13T06:32:11.062Z,93.51
2022-11-13T06:33:11.060Z,93.47
2022-11-13T06:34:11.059Z,93.28
2022-11-13T06:35:11.058Z,93.61
2022-11-13T06:36:12.061Z,93.44
2022-11-13T06:37:11.057Z,93.57
2022-11-13T06:38:11.063Z,93.48
2022-11-13T06:39:11.173Z,93.34
2022-11-13T06:40:11.058Z,93.39
2022-11-13T06:41:11.063Z,93.71
2022-11-13T06:42:11.062Z,93.48
2022-11-13T06:43:11.065Z,93.56
2022-11-13T06:44:11.064Z,93.98
2022-11-13T06:45:11.064Z,94.09
2022-11-13T06:46:16.063Z,93.92
2022-11-13T06:47:11.059Z,94.03
2022-11-13T06:48:11.062Z,94.05
2022-11-13T06:49:11.072Z,93.84
2022-11-13T06:50:11.060Z,94.03
2022-11-13T06:51:16.077Z,93.74
2022-11-13T06:52:11.065Z,93.83
2022-11-13T06:53:11.064Z,93.72
2022-11-13T06:54:11.062Z,94.15
2022-11-13T06:55:11.064Z,94.06
2022-11-13T06:56:11.063Z,93.88
2022-11-13T06:57:11.063Z,94.15
2022-11-13T06:58:11.064Z,93.71
2022-11-13T06:59:11.065Z,93.67
2022-11-13T07:00:11.073Z,93.90
2022-11-13T07:01:17.068Z,93.84
2022-11-13T07:02:11.071Z,93.85
2022-11-13T07:03:15.063Z,93.70
2022-11-13T07:04:13.064Z,94.18
2022-11-13T07:05:11.065Z,94.05
2022-11-13T07:06:11.068Z,93.95
2022-11-13T07:07:11.113Z,93.84
2022-11-13T07:08:11.067Z,94.27
2022-11-13T07:09:11.072Z,94.28
2022-11-13T07:10:11.066Z,94.50
2022-11-13T07:11:11.066Z,94.63
2022-11-13T07:12:11.069Z,94.46
2022-11-13T07:13:11.064Z,94.45
2022-11-13T07:14:12.064Z,94.07
2022-11-13T07:15:11.065Z,94.04
2022-11-13T07:16:17.081Z,94.55
2022-11-13T07:17:13.127Z,94.60
2022-11-13T07:18:11.068Z,94.35
2022-11-13T07:19:11.074Z,94.06
2022-11-13T07:20:11.064Z,93.80
2022-11-13T07:21:12.060Z,94.03
2022-11-13T07:22:11.061Z,94.20
2022-11-13T07:23:11.067Z,94.29
2022-11-13T07:24:16.565Z,94.23
2022-11-13T07:25:13.200Z,93.88
2022-11-13T07:26:11.069Z,94.00
2022-11-13T07:27:11.057Z,93.82
2022-11-13T07:28:11.063Z,93.73
2022-11-13T07:29:11.064Z,93.43
2022-11-13T07:30:11.063Z,93.91
2022-11-13T07:31:12.066Z,93.84
2022-11-13T07:32:11.060Z,93.85
2022-11-13T07:33:11.066Z,93.89
2022-11-13T07:34:11.059Z,93.91
2022-11-13T07:35:11.061Z,93.88
2022-11-13T07:36:11.070Z,93.66
2022-11-13T07:37:13.059Z,94.01
2022-11-13T07:38:11.065Z,93.87
2022-11-13T07:39:11.063Z,93.75
2022-11-13T07:40:11.061Z,93.71
2022-11-13T07:41:11.057Z,93.75
2022-11-13T07:42:11.060Z,93.96
2022-11-13T07:43:11.063Z,93.70
2022-11-13T07:44:11.202Z,93.27
2022-11-13T07:45:11.065Z,94.04
2022-11-13T07:46:11.069Z,93.98
2022-11-13T07:47:11.061Z,93.88
2022-11-13T07:48:11.061Z,93.90
2022-11-13T07:49:11.070Z,93.91
2022-11-13T07:50:11.223Z,93.85
2022-11-13T07:51:11.059Z,93.65
2022-11-13T07:52:11.069Z,93.31
2022-11-13T07:53:11.064Z,93.60
2022-11-13T07:54:11.064Z,94.15
2022-11-13T07:55:11.066Z,94.30
2022-11-13T07:56:11.065Z,94.03
2022-11-13T07:57:11.061Z,94.26
2022-11-13T07:58:11.071Z,94.44
2022-11-13T07:59:11.073Z,94.04
2022-11-13T08:00:11.065Z,93.82
2022-11-13T08:01:11.086Z,93.70
2022-11-13T08:02:15.066Z,93.85
2022-11-13T08:03:15.067Z,93.67
2022-11-13T08:04:11.065Z,94.00
2022-11-13T08:05:11.060Z,93.72
2022-11-13T08:06:11.064Z,93.45
2022-11-13T08:07:11.093Z,93.13
2022-11-13T08:08:13.067Z,93.30
2022-11-13T08:09:11.067Z,93.05
2022-11-13T08:10:11.066Z,92.84
2022-11-13T08:11:11.065Z,92.83
2022-11-13T08:12:11.065Z,92.72
2022-11-13T08:13:11.094Z,92.94
2022-11-13T08:14:11.065Z,93.32
2022-11-13T08:15:13.531Z,93.35
2022-11-13T08:16:11.073Z,93.69
2022-11-13T08:17:11.063Z,93.54
2022-11-13T08:18:11.075Z,93.40
2022-11-13T08:19:11.076Z,93.55
2022-11-13T08:20:11.067Z,94.03
2022-11-13T08:21:14.882Z,93.72
2022-11-13T08:22:11.063Z,93.64
2022-11-13T08:23:11.062Z,93.58
2022-11-13T08:24:11.056Z,94.10
2022-11-13T08:25:11.062Z,94.20
2022-11-13T08:26:11.061Z,93.96
2022-11-13T08:27:11.060Z,93.55
2022-11-13T08:28:13.131Z,93.48
2022-11-13T08:29:11.061Z,93.57
2022-11-13T08:30:11.061Z,93.39
2022-11-13T08:31:14.060Z,93.67
2022-11-13T08:32:11.069Z,93.57
2022-11-13T08:33:11.063Z,93.11
2022-11-13T08:34:11.064Z,93.01
2022-11-13T08:35:13.722Z,92.84
2022-11-13T08:36:13.880Z,92.86
2022-11-13T08:37:11.063Z,92.70
2022-11-13T08:38:11.062Z,92.58
2022-11-13T08:39:11.070Z,92.44
2022-11-13T08:40:11.068Z,92.71
2022-11-13T08:41:11.060Z,92.32
2022-11-13T08:42:11.065Z,92.35
2022-11-13T08:43:11.063Z,92.30
2022-11-13T08:44:11.058Z,92.13
2022-11-13T08:45:11.069Z,92.12
2022-11-13T08:46:11.064Z,92.03
2022-11-13T08:47:11.061Z,92.11
2022-11-13T08:48:11.062Z,92.23
2022-11-13T08:49:11.065Z,92.33
2022-11-13T08:50:11.063Z,92.30
2022-11-13T08:51:11.063Z,92.04
2022-11-13T08:52:11.069Z,92.15
2022-11-13T08:53:11.062Z,92.03
2022-11-13T08:54:11.065Z,91.49
2022-11-13T08:55:11.072Z,92.62
2022-11-13T08:56:11.065Z,92.42
2022-11-13T08:57:11.069Z,91.94
2022-11-13T08:58:11.067Z,92.05
2022-11-13T08:59:11.069Z,91.94
2022-11-13T09:00:11.063Z,91.95
2022-11-13T09:01:11.087Z,91.72
2022-11-13T09:02:14.069Z,91.53
2022-11-13T09:03:11.064Z,91.97
2022-11-13T09:04:11.128Z,92.70
2022-11-13T09:05:11.072Z,92.78
2022-11-13T09:06:11.063Z,92.93
2022-11-13T09:07:11.096Z,93.09
2022-11-13T09:08:11.076Z,92.40
2022-11-13T09:09:11.066Z,92.07
2022-11-13T09:10:11.067Z,92.17
2022-11-13T09:11:11.072Z,91.99
2022-11-13T09:12:11.067Z,91.63
2022-11-13T09:13:11.063Z,91.37
2022-11-13T09:14:11.069Z,91.08
2022-11-13T09:15:11.067Z,90.89
2022-11-13T09:16:11.065Z,90.70
2022-11-13T09:17:11.067Z,90.96
2022-11-13T09:18:11.067Z,91.12
2022-11-13T09:19:11.064Z,90.90
2022-11-13T09:20:13.762Z,90.93
2022-11-13T09:21:11.060Z,90.89
2022-11-13T09:22:11.059Z,91.09
2022-11-13T09:23:11.061Z,90.72
2022-11-13T09:24:11.076Z,90.88
2022-11-13T09:25:11.064Z,90.77
2022-11-13T09:26:11.064Z,90.93
2022-11-13T09:27:11.069Z,91.16
2022-11-13T09:28:11.063Z,90.86
2022-11-13T09:29:11.061Z,91.32
2022-11-13T09:30:11.061Z,91.12
2022-11-13T09:31:11.063Z,91.41
2022-11-13T09:32:11.059Z,91.28
2022-11-13T09:33:12.065Z,91.11
2022-11-13T09:34:11.069Z,90.80
2022-11-13T09:35:11.064Z,90.82
2022-11-13T09:36:14.066Z,90.73
2022-11-13T09:37:11.070Z,90.49
2022-11-13T09:38:11.789Z,90.53
2022-11-13T09:39:11.064Z,90.34
2022-11-13T09:40:17.071Z,89.97
2022-11-13T09:41:13.062Z,90.47
2022-11-13T09:42:17.063Z,90.58
2022-11-13T09:43:19.063Z,90.81
2022-11-13T09:44:19.070Z,90.43
2022-11-13T09:45:14.071Z,90.28
2022-11-13T09:46:20.062Z,90.30
2022-11-13T09:47:21.062Z,89.91
2022-11-13T09:48:22.063Z,89.80
2022-11-13T09:49:17.063Z,89.83
2022-11-13T09:50:22.075Z,90.09
2022-11-13T09:51:16.068Z,89.78
2022-11-13T09:52:19.063Z,89.56
2022-11-13T09:53:12.060Z,89.62
2022-11-13T09:54:15.069Z,89.94
2022-11-13T09:55:16.064Z,89.41
2022-11-13T09:56:19.063Z,89.20
2022-11-13T09:57:24.608Z,88.82
2022-11-13T09:58:24.434Z,88.85
2022-11-13T09:59:19.067Z,89.27
2022-11-13T10:00:15.073Z,89.03
2022-11-13T10:01:18.159Z,88.90
2022-11-13T10:02:22.063Z,88.30
2022-11-13T10:03:39.040Z,88.93
2022-11-13T10:04:16.072Z,88.77
2022-11-13T10:05:22.079Z,88.49
2022-11-13T10:06:19.066Z,88.43
2022-11-13T10:07:19.082Z,88.35
2022-11-13T10:08:20.064Z,88.42
2022-11-13T10:09:19.066Z,88.11
2022-11-13T10:10:19.075Z,87.98
2022-11-13T10:11:22.067Z,88.11
2022-11-13T10:12:11.068Z,87.62
2022-11-13T10:13:15.062Z,87.52
2022-11-13T10:14:19.071Z,87.84
2022-11-13T10:15:11.075Z,87.99
2022-11-13T10:16:22.064Z,88.16
2022-11-13T10:17:21.065Z,87.61
2022-11-13T10:18:20.070Z,87.44
2022-11-13T10:19:22.069Z,87.35
2022-11-13T10:20:21.076Z,87.42
2022-11-13T10:21:19.063Z,87.56
2022-11-13T10:22:32.336Z,88.04
2022-11-13T10:23:22.080Z,87.62
2022-11-13T10:24:21.058Z,87.14
2022-11-13T10:25:21.060Z,87.16
2022-11-13T10:26:15.061Z,87.47
2022-11-13T10:27:11.069Z,87.39
2022-11-13T10:28:48.330Z,87.28
2022-11-13T10:29:18.162Z,87.03
2022-11-13T10:30:17.074Z,86.51
2022-11-13T10:31:13.071Z,86.35
2022-11-13T10:32:22.059Z,86.27
2022-11-13T10:33:15.059Z,86.23
2022-11-13T10:34:11.063Z,86.07
2022-11-13T10:35:19.075Z,85.62
2022-11-13T10:36:19.063Z,86.17
2022-11-13T10:37:22.059Z,85.87
2022-11-13T10:38:17.058Z,86.14
2022-11-13T10:39:11.062Z,86.45
2022-11-13T10:40:11.071Z,86.10
2022-11-13T10:41:16.061Z,86.02
2022-11-13T10:42:19.062Z,85.83
2022-11-13T10:43:19.090Z,85.65
2022-11-13T10:44:19.064Z,85.61
2022-11-13T10:45:15.062Z,85.60
2022-11-13T10:46:18.059Z,85.59
2022-11-13T10:47:31.221Z,85.49
2022-11-13T10:48:21.172Z,85.82
2022-11-13T10:49:17.066Z,85.73
2022-11-13T10:50:19.061Z,85.44
2022-11-13T10:51:19.062Z,85.56
2022-11-13T10:52:19.065Z,85.52
2022-11-13T10:53:15.066Z,85.45
2022-11-13T10:54:19.065Z,85.48
2022-11-13T10:55:21.065Z,84.92
2022-11-13T10:56:19.064Z,85.14
2022-11-13T10:57:19.067Z,85.12
2022-11-13T10:58:18.066Z,85.09
2022-11-13T10:59:17.066Z,84.90
2022-11-13T11:00:19.063Z,84.82
2022-11-13T11:01:15.173Z,84.74
2022-11-13T11:02:18.071Z,84.76
2022-11-13T11:03:14.073Z,84.91
2022-11-13T11:04:19.067Z,84.97
2022-11-13T11:05:19.064Z,84.66
2022-11-13T11:06:11.067Z,85.04
2022-11-13T11:07:21.079Z,84.87
2022-11-13T11:08:11.219Z,84.79
2022-11-13T11:09:19.063Z,85.17
2022-11-13T11:10:19.067Z,85.00
2022-11-13T11:11:18.078Z,85.64
2022-11-13T11:12:16.065Z,85.68
2022-11-13T11:13:18.065Z,85.49
2022-11-13T11:14:22.068Z,85.60
2022-11-13T11:15:25.066Z,85.70
2022-11-13T11:16:12.070Z,85.55
2022-11-13T11:17:11.067Z,85.26
2022-11-13T11:18:22.105Z,85.28
2022-11-13T11:19:12.068Z,85.42
2022-11-13T11:20:19.077Z,85.16
2022-11-13T11:21:16.070Z,85.11
2022-11-13T11:22:19.060Z,85.79
2022-11-13T11:23:19.061Z,85.38
2022-11-13T11:24:16.063Z,86.04
2022-11-13T11:25:19.060Z,85.97
2022-11-13T11:26:22.062Z,85.93
2022-11-13T11:27:19.059Z,85.96
2022-11-13T11:28:21.063Z,85.65
2022-11-13T11:29:21.061Z,85.47
2022-11-13T11:30:19.069Z,85.14
2022-11-13T11:31:21.061Z,85.04
2022-11-13T11:32:24.059Z,85.00
2022-11-13T11:33:22.060Z,84.52
2022-11-13T11:34:22.058Z,84.27
2022-11-13T11:35:21.062Z,84.07
2022-11-13T11:36:19.063Z,83.70
2022-11-13T11:37:19.070Z,83.47
2022-11-13T11:38:19.058Z,83.72
2022-11-13T11:39:22.058Z,83.76
2022-11-13T11:40:19.063Z,83.39
2022-11-13T11:41:16.551Z,83.42
2022-11-13T11:42:19.073Z,83.51
2022-11-13T11:43:19.063Z,83.01
2022-11-13T11:44:19.062Z,83.38
2022-11-13T11:45:19.070Z,84.05
2022-11-13T11:46:15.064Z,83.89
2022-11-13T11:47:15.062Z,84.33
2022-11-13T11:48:16.062Z,84.54
2022-11-13T11:49:11.066Z,84.59
2022-11-13T11:50:16.065Z,84.36
2022-11-13T11:51:19.065Z,83.98
2022-11-13T11:52:22.063Z,84.24
2022-11-13T11:53:22.066Z,85.13
2022-11-13T11:54:22.080Z,84.56
2022-11-13T11:55:19.065Z,84.90
2022-11-13T11:56:19.064Z,85.08
2022-11-13T11:57:22.063Z,84.97
2022-11-13T11:58:22.059Z,85.17
2022-11-13T11:59:19.064Z,85.37
2022-11-13T12:00:16.072Z,85.44
2022-11-13T12:01:19.067Z,85.43
2022-11-13T12:02:19.063Z,85.14
2022-11-13T12:03:22.069Z,84.92
2022-11-13T12:04:22.066Z,85.55
2022-11-13T12:05:20.105Z,85.94
2022-11-13T12:06:22.066Z,86.11
2022-11-13T12:07:22.157Z,85.78
2022-11-13T12:08:19.065Z,85.59
2022-11-13T12:09:19.067Z,85.53
2022-11-13T12:10:22.068Z,85.55
2022-11-13T12:11:21.078Z,85.79
2022-11-13T12:12:22.069Z,85.73
2022-11-13T12:13:19.062Z,85.29
2022-11-13T12:14:19.063Z,85.01
2022-11-13T12:15:19.067Z,85.65
2022-11-13T12:16:25.096Z,85.60
2022-11-13T12:17:19.069Z,85.18
2022-11-13T12:18:22.065Z,85.23
2022-11-13T12:19:22.067Z,84.90
2022-11-13T12:20:19.069Z,85.72
2022-11-13T12:21:19.061Z,86.14
2022-11-13T12:22:22.830Z,85.81
2022-11-13T12:23:19.062Z,85.95
2022-11-13T12:24:19.059Z,85.77
2022-11-13T12:25:19.061Z,85.88
2022-11-13T12:26:19.068Z,85.61
2022-11-13T12:27:19.064Z,85.37
2022-11-13T12:28:20.058Z,85.64
2022-11-13T12:29:19.066Z,86.08
2022-11-13T12:30:16.062Z,85.71
2022-11-13T12:31:19.067Z,85.67
2022-11-13T12:32:19.063Z,85.70
2022-11-13T12:33:19.058Z,85.39
2022-11-13T12:34:19.062Z,85.08
2022-11-13T12:35:18.064Z,84.86
2022-11-13T12:36:12.070Z,84.82
2022-11-13T12:37:15.062Z,84.82
2022-11-13T12:38:19.061Z,84.78
2022-11-13T12:39:22.069Z,84.64
2022-11-13T12:40:19.062Z,84.92
2022-11-13T12:41:22.059Z,85.13
2022-11-13T12:42:20.063Z,84.99
2022-11-13T12:43:22.066Z,84.82
2022-11-13T12:44:19.063Z,85.10
2022-11-13T12:45:19.075Z,85.20
2022-11-13T12:46:11.063Z,85.03
2022-11-13T12:47:11.066Z,84.86
2022-11-13T12:48:19.071Z,84.70
2022-11-13T12:49:19.063Z,84.91
2022-11-13T12:50:19.062Z,84.83
2022-11-13T12:51:16.062Z,84.67
2022-11-13T12:52:19.063Z,84.43